createdAt,value
2022-12-29T00:00:16.799Z,79.22
2022-12-29T00:02:43.342Z,78.62
2022-12-29T00:05:10.247Z,79.15
2022-12-29T00:07:36.767Z,79.93
2022-12-29T00:10:04.001Z,80.17
2022-12-29T00:12:50.411Z,78.66
2022-12-29T00:15:35.573Z,78.93
2022-12-29T00:18:02.123Z,78.58
2022-12-29T00:20:47.129Z,79.10
2022-12-29T00:23:31.833Z,79.32
2022-12-29T00:26:17.599Z,79.34
2022-12-29T00:29:02.823Z,79.04
2022-12-29T00:31:47.962Z,80.24
2022-12-29T00:34:33.139Z,80.64
2022-12-29T00:36:59.582Z,80.57
2022-12-29T00:39:44.549Z,80.19
2022-12-29T00:42:29.520Z,79.46
2022-12-29T00:44:56.006Z,81.00
2022-12-29T00:47:22.437Z,79.58
2022-12-29T00:49:48.827Z,80.33
2022-12-29T00:52:15.227Z,81.25
2022-12-29T00:54:42.373Z,79.94
2022-12-29T00:57:10.612Z,81.51
2022-12-29T00:59:38.340Z,80.41
2022-12-29T01:02:05.004Z,80.03
2022-12-29T01:04:31.520Z,80.44
2022-12-29T01:06:58.075Z,80.01
2022-12-29T01:09:43.897Z,81.54
2022-12-29T01:12:11.253Z,81.52
2022-12-29T01:14:38.871Z,81.24
2022-12-29T01:17:06.251Z,81.24
2022-12-29T01:19:32.845Z,81.50
2022-12-29T01:21:59.313Z,81.12
2022-12-29T01:24:27.006Z,81.87
2022-12-29T01:26:55.289Z,81.08
2022-12-29T01:29:21.836Z,82.43
2022-12-29T01:31:48.418Z,82.68
2022-12-29T01:34:15.149Z,82.03
2022-12-29T01:36:42.612Z,82.31
2022-12-29T01:39:09.061Z,81.66
2022-12-29T01:41:35.514Z,82.17
2022-12-29T01:44:02.584Z,81.65
2022-12-29T01:46:46.582Z,81.45
2022-12-29T01:49:18.187Z,81.16
2022-12-29T01:51:46.863Z,81.28
2022-12-29T01:54:36.909Z,81.69
2022-12-29T01:57:09.167Z,81.69
2022-12-29T01:59:54.495Z,80.72
2022-12-29T02:02:21.251Z,81.85
2022-12-29T02:04:48.964Z,80.71
2022-12-29T02:07:20.610Z,81.11
2022-12-29T02:09:50.497Z,81.76
2022-12-29T02:12:21.817Z,80.63
2022-12-29T02:14:54.083Z,80.95
2022-12-29T02:17:26.367Z,81.31
2022-12-29T02:20:08.787Z,80.75
2022-12-29T02:22:47.411Z,80.13
2022-12-29T02:25:20.036Z,81.19
2022-12-29T02:27:56.260Z,81.10
2022-12-29T02:30:44.907Z,79.88
2022-12-29T02:33:29.524Z,81.16
2022-12-29T02:36:06.437Z,80.75
2022-12-29T02:39:11.019Z,79.91
2022-12-29T02:41:45.540Z,80.58
2022-12-29T02:44:27.219Z,80.00
2022-12-29T02:46:57.981Z,79.56
2022-12-29T02:49:59.932Z,80.44
2022-12-29T02:52:35.086Z,79.52
2022-12-29T02:55:01.577Z,79.70
2022-12-29T02:57:29.915Z,80.20
2022-12-29T03:00:08.392Z,77.86
2022-12-29T03:02:53.575Z,79.34
2022-12-29T03:05:57.182Z,79.38
2022-12-29T03:08:35.677Z,79.52
2022-12-29T03:11:31.770Z,79.22
2022-12-29T03:14:37.521Z,78.50
2022-12-29T03:17:17.765Z,79.32
2022-12-29T03:19:50.679Z,79.77
2022-12-29T03:22:28.716Z,79.95
2022-12-29T03:25:00.303Z,79.30
2022-12-29T03:27:32.141Z,79.26
2022-12-29T03:30:03.317Z,78.57
2022-12-29T03:32:35.538Z,78.12
2022-12-29T03:35:04.040Z,78.96
2022-12-29T03:37:36.372Z,77.25
2022-12-29T03:40:04.243Z,78.03
2022-12-29T03:42:34.435Z,78.25
2022-12-29T03:45:01.326Z,78.65
2022-12-29T03:47:27.827Z,78.57
2022-12-29T03:49:54.282Z,77.43
2022-12-29T03:52:20.740Z,78.42
2022-12-29T03:54:47.895Z,78.45
2022-12-29T03:57:14.342Z,76.39
2022-12-29T03:59:40.826Z,77.13
2022-12-29T04:02:07.351Z,76.58
2022-12-29T04:04:33.949Z,76.54
2022-12-29T04:07:00.488Z,77.58
2022-12-29T04:09:26.895Z,77.91
2022-12-29T04:11:53.282Z,78.26
2022-12-29T04:14:19.705Z,78.38
2022-12-29T04:16:46.173Z,77.85
2022-12-29T04:19:13.442Z,77.92
2022-12-29T04:21:39.896Z,76.16
2022-12-29T04:24:07.694Z,77.31
2022-12-29T04:26:34.566Z,76.58
2022-12-29T04:29:01.084Z,76.87
2022-12-29T04:31:27.563Z,77.21
2022-12-29T04:33:53.994Z,76.88
2022-12-29T04:36:23.240Z,77.01
2022-12-29T04:38:54.311Z,76.47
2022-12-29T04:41:20.756Z,76.29
2022-12-29T04:43:47.323Z,76.02
2022-12-29T04:46:13.782Z,75.72
2022-12-29T04:48:40.947Z,77.37
2022-12-29T04:51:07.351Z,76.09
2022-12-29T04:53:34.006Z,76.85
2022-12-29T04:56:00.583Z,76.08
2022-12-29T04:58:26.994Z,75.67
2022-12-29T05:00:53.473Z,75.74
2022-12-29T05:03:19.983Z,76.68
2022-12-29T05:05:46.491Z,76.37
2022-12-29T05:08:12.901Z,75.60
2022-12-29T05:10:40.545Z,76.54
2022-12-29T05:13:06.969Z,76.76
2022-12-29T05:15:33.989Z,75.58
2022-12-29T05:18:00.500Z,77.26
2022-12-29T05:20:26.964Z,75.85
2022-12-29T05:22:53.459Z,76.92
2022-12-29T05:25:19.865Z,75.55
2022-12-29T05:27:46.267Z,77.24
2022-12-29T05:30:13.243Z,75.39
2022-12-29T05:32:39.843Z,77.00
2022-12-29T05:35:06.818Z,76.06
2022-12-29T05:37:34.056Z,76.40
2022-12-29T05:40:00.507Z,76.84
2022-12-29T05:42:26.917Z,78.00
2022-12-29T05:44:54.789Z,77.19
2022-12-29T05:47:21.490Z,77.27
2022-12-29T05:49:47.900Z,76.54
2022-12-29T05:52:14.353Z,76.58
2022-12-29T05:54:41.013Z,76.64
2022-12-29T05:57:07.576Z,77.65
2022-12-29T05:59:33.967Z,75.79
2022-12-29T06:02:00.540Z,75.60
2022-12-29T06:04:27.244Z,76.71
2022-12-29T06:06:53.661Z,76.02
2022-12-29T06:09:20.093Z,75.46
2022-12-29T06:11:46.527Z,76.92
2022-12-29T06:14:12.895Z,76.48
2022-12-29T06:16:39.448Z,77.45
2022-12-29T06:19:06.051Z,77.01
2022-12-29T06:21:32.527Z,75.98
2022-12-29T06:23:58.965Z,77.20
2022-12-29T06:26:25.434Z,77.53
2022-12-29T06:28:51.833Z,77.36
2022-12-29T06:31:18.298Z,77.37
2022-12-29T06:33:49.553Z,77.14
2022-12-29T06:36:16.323Z,76.03
2022-12-29T06:38:43.939Z,75.80
2022-12-29T06:41:10.460Z,77.75
2022-12-29T06:43:38.962Z,77.30
2022-12-29T06:46:06.226Z,75.95
2022-12-29T06:48:32.785Z,76.56
2022-12-29T06:50:59.187Z,76.81
2022-12-29T06:53:25.771Z,77.78
2022-12-29T06:55:52.194Z,76.26
2022-12-29T06:58:18.613Z,76.34
2022-12-29T07:00:45.124Z,77.68
2022-12-29T07:03:11.873Z,76.74
2022-12-29T07:05:38.315Z,76.99
2022-12-29T07:08:05.145Z,76.60
2022-12-29T07:10:31.555Z,76.14
2022-12-29T07:12:58.025Z,77.62
2022-12-29T07:15:24.522Z,77.57
2022-12-29T07:17:50.908Z,77.57
2022-12-29T07:20:20.582Z,77.12
2022-12-29T07:22:49.766Z,75.74
2022-12-29T07:25:16.215Z,77.43
2022-12-29T07:27:44.140Z,76.22
2022-12-29T07:30:11.199Z,77.43
2022-12-29T07:32:37.750Z,75.85
2022-12-29T07:35:04.466Z,75.93
2022-12-29T07:37:30.864Z,77.21
2022-12-29T07:39:57.278Z,77.31
2022-12-29T07:42:23.992Z,75.83
2022-12-29T07:44:50.437Z,76.19
2022-12-29T07:47:16.879Z,76.90
2022-12-29T07:49:43.377Z,77.28
2022-12-29T07:52:09.870Z,76.01
2022-12-29T07:54:36.336Z,75.82
2022-12-29T07:57:02.772Z,75.41
2022-12-29T07:59:29.415Z,75.22
2022-12-29T08:01:55.847Z,76.44
2022-12-29T08:04:22.436Z,76.82
2022-12-29T08:06:48.965Z,76.15
2022-12-29T08:09:22.058Z,75.39
2022-12-29T08:11:49.492Z,75.84
2022-12-29T08:14:16.045Z,77.31
2022-12-29T08:16:42.462Z,76.72
2022-12-29T08:19:11.721Z,75.98
2022-12-29T08:21:38.120Z,75.99
2022-12-29T08:24:04.882Z,77.29
2022-12-29T08:26:31.391Z,75.63
2022-12-29T08:28:57.917Z,77.32
2022-12-29T08:31:24.923Z,75.25
2022-12-29T08:33:51.749Z,76.95
2022-12-29T08:36:18.313Z,74.98
2022-12-29T08:38:44.820Z,76.00
2022-12-29T08:41:11.262Z,74.96
2022-12-29T08:43:37.703Z,76.42
2022-12-29T08:46:04.329Z,76.00
2022-12-29T08:48:30.845Z,76.47
2022-12-29T08:50:57.319Z,76.07
2022-12-29T08:53:23.781Z,74.94
2022-12-29T08:56:02.362Z,75.38
2022-12-29T08:58:31.076Z,76.29
2022-12-29T09:00:58.445Z,75.31
2022-12-29T09:03:54.639Z,75.41
2022-12-29T09:06:12.559Z,76.42
2022-12-29T09:08:39.044Z,75.97
2022-12-29T09:11:15.122Z,75.18
2022-12-29T09:13:42.086Z,75.31
2022-12-29T09:16:08.605Z,74.32
2022-12-29T09:18:35.504Z,74.18
2022-12-29T09:21:04.166Z,75.62
2022-12-29T09:23:31.513Z,75.41
2022-12-29T09:25:58.013Z,74.86
2022-12-29T09:28:24.890Z,75.15
2022-12-29T09:30:51.976Z,74.41
2022-12-29T09:33:19.328Z,75.46
2022-12-29T09:35:50.680Z,75.35
2022-12-29T09:38:17.944Z,74.72
2022-12-29T09:40:50.396Z,74.69
2022-12-29T09:43:16.801Z,75.29
2022-12-29T09:45:46.352Z,75.54
2022-12-29T09:48:24.348Z,74.68
2022-12-29T09:50:56.132Z,74.46
2022-12-29T09:53:45.303Z,75.38
2022-12-29T09:56:19.394Z,75.61
2022-12-29T09:58:53.133Z,74.29
2022-12-29T10:01:42.504Z,75.25
2022-12-29T10:04:09.583Z,74.78
2022-12-29T10:07:19.392Z,74.22
2022-12-29T10:10:02.268Z,74.69
2022-12-29T10:16:39.034Z,74.79
2022-12-29T10:19:14.608Z,74.92
2022-12-29T10:21:47.014Z,75.26
2022-12-29T10:24:14.167Z,74.67
2022-12-29T10:26:43.437Z,74.69
2022-12-29T10:29:27.184Z,73.86
2022-12-29T10:31:53.641Z,74.56
2022-12-29T10:34:25.273Z,74.82
2022-12-29T10:37:03.571Z,73.97
2022-12-29T10:39:37.887Z,73.72
2022-12-29T10:42:12.377Z,74.63
2022-12-29T10:44:39.463Z,74.14
2022-12-29T10:47:13.014Z,74.52
2022-12-29T10:49:43.619Z,74.32
2022-12-29T10:52:12.961Z,74.01
2022-12-29T10:54:42.448Z,74.64
2022-12-29T10:57:35.147Z,74.33
2022-12-29T11:00:02.044Z,75.28
2022-12-29T11:02:48.022Z,76.38
2022-12-29T11:05:19.129Z,78.28
2022-12-29T11:07:49.004Z,78.30
2022-12-29T11:10:33.910Z,79.13
2022-12-29T11:13:32.134Z,79.53
2022-12-29T11:16:01.996Z,79.50
2022-12-29T11:18:40.710Z,81.01
2022-12-29T11:21:27.430Z,80.22
2022-12-29T11:24:00.000Z,81.39
2022-12-29T11:26:33.803Z,80.73
2022-12-29T11:29:06.819Z,82.59
2022-12-29T11:31:45.037Z,82.33
2022-12-29T11:34:25.927Z,83.35
2022-12-29T11:37:02.689Z,84.08
2022-12-29T11:39:32.032Z,84.08
2022-12-29T11:41:59.194Z,83.44
2022-12-29T11:44:27.522Z,84.55
2022-12-29T11:46:57.786Z,85.22
2022-12-29T11:49:26.736Z,85.29
2022-12-29T11:51:58.032Z,85.75
2022-12-29T11:54:36.295Z,86.42
2022-12-29T11:57:16.107Z,86.68
2022-12-29T11:59:56.975Z,85.77
2022-12-29T12:02:49.463Z,85.91
2022-12-29T12:05:22.985Z,86.16
2022-12-29T12:08:08.107Z,86.85
2022-12-29T12:10:43.301Z,84.84
2022-12-29T12:13:26.351Z,85.00
2022-12-29T12:16:07.093Z,86.52
2022-12-29T12:18:33.532Z,86.18
2022-12-29T12:21:11.609Z,85.86
2022-12-29T12:23:44.724Z,86.00
2022-12-29T12:26:19.160Z,85.87
2022-12-29T12:29:05.648Z,86.07
2022-12-29T12:31:38.020Z,84.90
2022-12-29T12:34:12.220Z,85.78
2022-12-29T12:36:50.433Z,86.47
2022-12-29T12:39:32.027Z,85.56
2022-12-29T12:42:04.339Z,86.71
2022-12-29T12:44:46.028Z,85.46
2022-12-29T12:47:51.160Z,86.23
2022-12-29T12:50:40.733Z,85.62
2022-12-29T12:53:16.785Z,86.52
2022-12-29T12:56:01.221Z,86.97
2022-12-29T12:58:55.086Z,86.42
2022-12-29T13:01:48.860Z,87.68
2022-12-29T13:04:42.544Z,87.45
2022-12-29T13:07:29.893Z,88.03
2022-12-29T13:10:25.852Z,88.14
2022-12-29T13:13:11.111Z,87.26
2022-12-29T13:15:43.510Z,87.19
2022-12-29T13:18:28.734Z,88.14
2022-12-29T13:21:03.818Z,88.21
2022-12-29T13:23:46.084Z,86.98
2022-12-29T13:26:25.314Z,86.84
2022-12-29T13:29:19.528Z,86.88
2022-12-29T13:31:56.671Z,88.67
2022-12-29T13:34:35.043Z,87.22
2022-12-29T13:37:08.522Z,87.67
2022-12-29T13:39:40.892Z,88.96
2022-12-29T13:42:08.533Z,88.96
2022-12-29T13:44:39.914Z,87.21
2022-12-29T13:47:39.693Z,87.66
2022-12-29T13:50:15.233Z,87.11
2022-12-29T13:52:50.656Z,87.76
2022-12-29T13:55:20.678Z,88.02
2022-12-29T13:58:24.134Z,88.19
2022-12-29T14:01:00.482Z,87.81
2022-12-29T14:03:58.828Z,86.18
2022-12-29T14:06:31.076Z,87.01
2022-12-29T14:09:03.108Z,87.58
2022-12-29T14:11:38.794Z,86.88
2022-12-29T14:14:18.528Z,86.96
2022-12-29T14:16:46.683Z,86.48
2022-12-29T14:19:18.063Z,87.25
2022-12-29T14:21:57.959Z,86.19
2022-12-29T14:24:33.549Z,84.35
2022-12-29T14:27:00.052Z,85.29
2022-12-29T14:29:26.449Z,83.58
2022-12-29T14:31:53.691Z,84.55
2022-12-29T14:34:23.222Z,84.93
2022-12-29T14:37:02.082Z,84.92
2022-12-29T14:39:37.672Z,83.00
2022-12-29T14:42:23.715Z,83.38
2022-12-29T14:44:59.580Z,83.99
2022-12-29T14:47:35.912Z,83.33
2022-12-29T14:50:23.387Z,83.18
2022-12-29T14:53:03.490Z,83.58
2022-12-29T14:55:40.409Z,83.00
2022-12-29T14:58:28.893Z,83.28
2022-12-29T15:00:56.332Z,82.74
2022-12-29T15:03:31.648Z,82.80
2022-12-29T15:06:09.463Z,82.68
2022-12-29T15:08:41.559Z,82.08
2022-12-29T15:11:14.984Z,83.59
2022-12-29T15:13:44.332Z,82.42
2022-12-29T15:16:28.932Z,82.37
2022-12-29T15:18:57.013Z,82.42
2022-12-29T15:21:32.168Z,82.96
2022-12-29T15:23:58.907Z,82.63
2022-12-29T15:26:38.056Z,83.96
2022-12-29T15:29:04.477Z,82.08
2022-12-29T15:31:31.230Z,82.08
2022-12-29T15:34:24.299Z,82.25
2022-12-29T15:36:51.748Z,82.95
2022-12-29T15:39:20.846Z,81.57
2022-12-29T15:42:02.259Z,83.46
2022-12-29T15:44:44.214Z,81.57
2022-12-29T15:47:18.830Z,81.67
2022-12-29T15:49:49.377Z,82.04
2022-12-29T15:52:22.541Z,80.96
2022-12-29T15:54:51.513Z,81.65
2022-12-29T15:57:27.831Z,82.01
2022-12-29T15:59:55.212Z,81.32
2022-12-29T16:02:26.502Z,79.83
2022-12-29T16:05:17.721Z,81.58
2022-12-29T16:07:53.730Z,81.33
2022-12-29T16:10:28.140Z,79.64
2022-12-29T16:12:54.989Z,80.42
2022-12-29T16:15:22.397Z,80.41
2022-12-29T16:17:51.915Z,80.30
2022-12-29T16:20:22.427Z,81.52
2022-12-29T16:22:56.818Z,80.75
2022-12-29T16:25:24.994Z,81.67
2022-12-29T16:27:53.136Z,81.06
2022-12-29T16:30:33.424Z,80.22
2022-12-29T16:33:03.062Z,80.43
2022-12-29T16:35:58.929Z,79.70
2022-12-29T16:38:34.552Z,81.75
2022-12-29T16:41:05.493Z,79.91
2022-12-29T16:43:42.742Z,80.46
2022-12-29T16:46:26.160Z,81.63
2022-12-29T16:48:57.100Z,79.75
2022-12-29T16:51:33.432Z,80.10
2022-12-29T16:54:00.811Z,79.28
2022-12-29T16:56:31.714Z,79.64
2022-12-29T16:59:30.362Z,79.24
2022-12-29T17:01:59.889Z,79.35
2022-12-29T17:04:26.634Z,81.49
2022-12-29T17:06:53.453Z,80.71
2022-12-29T17:09:21.476Z,80.57
2022-12-29T17:12:02.919Z,82.02
2022-12-29T17:14:37.214Z,80.39
2022-12-29T17:17:06.760Z,83.02
2022-12-29T17:19:35.691Z,81.89
2022-12-29T17:22:03.697Z,80.92
2022-12-29T17:24:30.911Z,82.55
2022-12-29T17:27:00.756Z,81.06
2022-12-29T17:29:37.510Z,80.61
2022-12-29T17:32:07.158Z,81.52
2022-12-29T17:34:34.288Z,79.58
2022-12-29T17:37:00.965Z,80.64
2022-12-29T17:39:27.687Z,79.62
2022-12-29T17:41:55.306Z,80.66
2022-12-29T17:44:23.492Z,79.26
2022-12-29T17:46:50.254Z,80.00
2022-12-29T17:49:18.963Z,79.32
2022-12-29T17:51:47.555Z,79.18
2022-12-29T17:54:25.749Z,78.72
2022-12-29T17:56:52.999Z,79.80
2022-12-29T17:59:20.867Z,79.36
2022-12-29T18:01:48.884Z,77.74
2022-12-29T18:04:19.227Z,78.28
2022-12-29T18:06:46.668Z,77.15
2022-12-29T18:09:14.856Z,78.03
2022-12-29T18:11:43.499Z,77.03
2022-12-29T18:14:14.978Z,78.30
2022-12-29T18:16:42.005Z,76.53
2022-12-29T18:19:12.147Z,76.17
2022-12-29T18:21:41.153Z,77.36
2022-12-29T18:24:14.139Z,75.81
2022-12-29T18:26:40.684Z,76.89
2022-12-29T18:29:07.095Z,75.36
2022-12-29T18:31:35.140Z,75.36
2022-12-29T18:34:07.433Z,76.16
2022-12-29T18:36:33.832Z,76.00
2022-12-29T18:39:00.302Z,76.10
2022-12-29T18:41:30.256Z,75.24
2022-12-29T18:43:57.449Z,74.58
2022-12-29T18:46:24.082Z,75.92
2022-12-29T18:48:51.739Z,76.20
2022-12-29T18:51:21.839Z,75.26
2022-12-29T18:53:48.762Z,75.55
2022-12-29T18:56:15.226Z,74.76
2022-12-29T18:58:42.116Z,76.55
2022-12-29T19:01:19.061Z,75.09
2022-12-29T19:03:45.692Z,76.68
2022-12-29T19:06:12.059Z,75.92
2022-12-29T19:08:39.032Z,75.29
2022-12-29T19:11:05.624Z,76.31
2022-12-29T19:13:32.073Z,76.20
2022-12-29T19:15:59.497Z,76.23
2022-12-29T19:18:45.264Z,75.75
2022-12-29T19:21:14.199Z,75.98
2022-12-29T19:23:40.632Z,75.88
2022-12-29T19:26:07.155Z,75.91
2022-12-29T19:28:33.633Z,76.01
2022-12-29T19:31:02.198Z,76.97
2022-12-29T19:33:29.468Z,75.49
2022-12-29T19:36:01.382Z,75.96
2022-12-29T19:38:28.358Z,75.88
2022-12-29T19:40:54.770Z,76.83
2022-12-29T19:43:21.264Z,76.14
2022-12-29T19:45:47.678Z,76.05
2022-12-29T19:48:17.297Z,76.24
2022-12-29T19:50:44.503Z,76.16
2022-12-29T19:53:11.343Z,77.21
2022-12-29T19:55:41.524Z,77.56
2022-12-29T19:58:08.032Z,77.68
2022-12-29T20:00:34.580Z,75.85
2022-12-29T20:03:01.178Z,75.85
2022-12-29T20:05:27.829Z,77.33
2022-12-29T20:07:54.237Z,76.43
2022-12-29T20:10:20.682Z,76.18
2022-12-29T20:12:47.208Z,75.73
2022-12-29T20:15:15.054Z,76.01
2022-12-29T20:20:27.960Z,76.26
2022-12-29T20:22:54.407Z,77.33
2022-12-29T20:28:08.439Z,75.38
2022-12-29T20:30:34.978Z,75.47
2022-12-29T20:33:07.647Z,76.19
2022-12-29T20:35:34.726Z,76.98
2022-12-29T20:38:01.151Z,75.46
2022-12-29T20:40:27.705Z,76.52
2022-12-29T20:42:54.151Z,76.74
2022-12-29T20:45:20.652Z,76.71
2022-12-29T20:47:47.126Z,76.17
2022-12-29T20:50:13.590Z,76.28
2022-12-29T20:52:40.027Z,76.59
2022-12-29T20:55:06.539Z,75.76
2022-12-29T20:57:57.170Z,76.29
2022-12-29T21:00:22.538Z,76.46
2022-12-29T21:02:49.834Z,76.81
2022-12-29T21:05:25.017Z,77.10
2022-12-29T21:07:52.494Z,77.36
2022-12-29T21:10:19.222Z,77.23
2022-12-29T21:12:45.874Z,76.78
2022-12-29T21:15:14.382Z,76.68
2022-12-29T21:17:42.032Z,77.10
2022-12-29T21:20:09.229Z,76.81
2022-12-29T21:22:35.696Z,77.18
2022-12-29T21:25:02.144Z,77.82
2022-12-29T21:27:29.138Z,77.86
2022-12-29T21:29:57.985Z,76.32
2022-12-29T21:32:24.553Z,77.28
2022-12-29T21:34:50.970Z,76.47
2022-12-29T21:37:23.414Z,77.63
2022-12-29T21:39:50.273Z,78.04
2022-12-29T21:42:16.672Z,77.29
2022-12-29T21:45:18.343Z,77.04
2022-12-29T21:48:05.160Z,76.35
2022-12-29T21:50:31.623Z,77.24
2022-12-29T21:52:58.041Z,76.61
2022-12-29T21:55:24.497Z,77.62
2022-12-29T21:58:09.565Z,78.43
2022-12-29T22:00:54.304Z,78.70
2022-12-29T22:03:39.250Z,77.74
2022-12-29T22:06:29.412Z,79.85
2022-12-29T22:09:14.085Z,79.22
2022-12-29T22:11:59.356Z,79.98
2022-12-29T22:14:25.813Z,79.37
2022-12-29T22:16:52.526Z,80.23
2022-12-29T22:19:19.047Z,79.42
2022-12-29T22:21:45.493Z,79.15
2022-12-29T22:24:11.950Z,79.79
2022-12-29T22:26:38.378Z,80.80
2022-12-29T22:29:05.007Z,79.40
2022-12-29T22:31:32.680Z,79.21
2022-12-29T22:34:02.415Z,80.96
2022-12-29T22:36:29.656Z,79.78
2022-12-29T22:38:56.293Z,79.48
2022-12-29T22:41:23.506Z,78.88
2022-12-29T22:43:49.975Z,78.48
2022-12-29T22:46:16.490Z,78.72
2022-12-29T22:48:43.248Z,80.11
2022-12-29T22:51:09.688Z,79.70
2022-12-29T22:53:36.128Z,79.67
2022-12-29T22:56:08.276Z,79.40
2022-12-29T22:58:34.936Z,77.93
2022-12-29T23:01:01.721Z,78.60
2022-12-29T23:03:28.320Z,78.53
2022-12-29T23:06:03.087Z,77.44
2022-12-29T23:08:33.305Z,75.81
2022-12-29T23:11:00.687Z,77.03
2022-12-29T23:13:27.219Z,75.98
2022-12-29T23:15:53.724Z,76.00
2022-12-29T23:18:20.399Z,75.78
2022-12-29T23:20:48.851Z,76.28
2022-12-29T23:23:36.448Z,76.18
2022-12-29T23:26:03.335Z,74.80
2022-12-29T23:28:29.729Z,73.96
2022-12-29T23:30:56.186Z,73.53
2022-12-29T23:33:22.656Z,73.79
2022-12-29T23:35:49.327Z,74.05
2022-12-29T23:38:15.783Z,74.92
2022-12-29T23:40:42.378Z,73.25
2022-12-29T23:43:08.804Z,74.48
2022-12-29T23:45:36.568Z,73.54
2022-12-29T23:48:04.393Z,74.02
2022-12-29T23:50:31.785Z,72.84
2022-12-29T23:52:59.120Z,73.29
2022-12-29T23:55:25.701Z,72.91
2022-12-29T23:57:52.154Z,72.60
